Time;durP1;ratioP1;P1;durP2;ratioP2;P2;SDS_P1;SDS_P2;PMS_P1;PMS_P2;Temp;Humidity;BMP_temperature;BMP_pressure;BME280_temperature;BME280_humidity;BME280_pressure;Samples;Min_cycle;Max_cycle;Signal;HPM_P1;HPM_P2
2022/05/19 00:01:30;;;;;;;9.20;5.75;;;22.40;61.00;;;;;;2375453;56;21513;-73
2022/05/19 00:03:57;;;;;;;7.78;5.68;;;22.30;60.90;;;;;;2373781;56;21055;-74
2022/05/19 00:06:24;;;;;;;6.95;5.25;;;22.30;61.10;;;;;;2374025;56;21294;-73
2022/05/19 00:08:52;;;;;;;6.45;5.65;;;22.30;61.20;;;;;;2374561;56;21514;-74
2022/05/19 00:11:23;;;;;;;7.50;5.70;;;22.30;61.30;;;;;;2375272;56;21114;-73
2022/05/19 00:13:50;;;;;;;10.57;5.93;;;22.30;61.20;;;;;;2375254;56;21034;-74
2022/05/19 00:16:17;;;;;;;9.52;6.15;;;22.30;61.80;;;;;;2375001;56;21043;-73
2022/05/19 00:18:45;;;;;;;7.12;5.53;;;22.30;61.50;;;;;;2628685;52;21087;-73
2022/05/19 00:21:12;;;;;;;8.55;5.82;;;22.20;61.80;;;;;;2372252;56;21047;-74
2022/05/19 00:23:39;;;;;;;8.13;5.53;;;22.20;61.60;;;;;;2374935;56;21113;-73
2022/05/19 00:26:06;;;;;;;8.73;5.40;;;22.20;61.70;;;;;;2374097;56;21041;-74
2022/05/19 00:28:34;;;;;;;9.15;5.85;;;22.10;62.50;;;;;;2375016;56;21054;-74
2022/05/19 00:31:01;;;;;;;8.45;6.07;;;22.10;62.60;;;;;;2375170;56;21027;-73
2022/05/19 00:33:29;;;;;;;6.60;5.75;;;22.10;61.90;;;;;;2374709;56;21035;-73
2022/05/19 00:35:57;;;;;;;8.27;5.68;;;22.10;62.10;;;;;;2374846;56;21114;-73
2022/05/19 00:38:25;;;;;;;6.97;5.90;;;22.00;61.80;;;;;;2374942;56;21034;-74
2022/05/19 00:40:54;;;;;;;7.18;5.65;;;22.00;61.90;;;;;;2628257;52;21050;-74
2022/05/19 00:43:28;;;;;;;9.02;6.68;;;22.00;61.90;;;;;;2374758;56;21054;-73
2022/05/19 00:46:00;;;;;;;7.90;6.18;;;22.00;61.90;;;;;;2374762;56;21545;-73
2022/05/19 00:48:34;;;;;;;8.00;6.15;;;22.00;62.10;;;;;;2628138;52;21055;-74
2022/05/19 00:51:04;;;;;;;8.63;5.70;;;22.00;62.10;;;;;;2375157;56;21031;-73
2022/05/19 00:53:39;;;;;;;9.38;6.18;;;22.00;62.00;;;;;;2374851;56;21089;-73
2022/05/19 00:56:11;;;;;;;6.80;5.97;;;21.90;62.30;;;;;;2374849;56;21109;-74
2022/05/19 00:58:46;;;;;;;9.13;5.85;;;21.90;62.30;;;;;;2627678;52;21410;-73
2022/05/19 01:01:14;;;;;;;7.25;6.55;;;21.90;62.30;;;;;;2374400;56;21039;-73
2022/05/19 01:03:46;;;;;;;7.85;5.85;;;21.90;62.30;;;;;;2373957;56;21127;-73
2022/05/19 01:06:17;;;;;;;7.35;5.50;;;21.90;62.40;;;;;;2373763;56;21114;-74
2022/05/19 01:08:49;;;;;;;7.07;6.37;;;21.80;62.60;;;;;;2374260;56;21126;-74
2022/05/19 01:11:18;;;;;;;7.95;6.72;;;21.80;62.70;;;;;;2374040;56;21090;-74
2022/05/19 01:13:46;;;;;;;6.85;5.87;;;21.80;62.90;;;;;;2627090;52;21114;-73
2022/05/19 01:16:15;;;;;;;11.07;6.60;;;21.80;62.80;;;;;;2373688;56;21090;-73
2022/05/19 01:18:43;;;;;;;12.63;6.10;;;21.70;62.70;;;;;;2372996;56;21058;-73
2022/05/19 01:21:13;;;;;;;7.78;6.30;;;21.70;62.80;;;;;;2374347;56;21058;-73
2022/05/19 01:24:02;;;;;;;8.95;5.72;;;21.70;63.00;;;;;;2373529;56;21045;-73
2022/05/19 01:26:46;;;;;;;8.60;6.47;;;21.60;62.90;;;;;;2627193;52;21082;-73
2022/05/19 01:29:17;;;;;;;8.90;5.90;;;21.60;62.90;;;;;;2373802;56;21113;-73
2022/05/19 01:31:50;;;;;;;9.23;6.03;;;21.60;62.70;;;;;;2627090;52;21042;-73
2022/05/19 01:34:20;;;;;;;7.85;6.55;;;21.60;62.80;;;;;;2627999;52;21031;-73
2022/05/19 01:36:48;;;;;;;8.73;6.00;;;21.60;63.00;;;;;;2372269;56;21031;-73
2022/05/19 01:39:18;;;;;;;10.88;6.53;;;21.60;63.10;;;;;;2626806;52;21102;-73
2022/05/19 01:42:00;;;;;;;7.30;5.50;;;21.50;63.20;;;;;;2374520;56;21102;-74
2022/05/19 01:44:41;;;;;;;7.25;6.05;;;21.50;63.50;;;;;;2374399;56;21106;-73
2022/05/19 01:47:15;;;;;;;7.82;6.15;;;21.50;63.80;;;;;;2626719;52;21094;-74
2022/05/19 01:49:48;;;;;;;10.63;6.45;;;21.50;63.50;;;;;;2373439;56;21031;-73
2022/05/19 01:52:20;;;;;;;10.23;7.18;;;21.50;63.40;;;;;;2374334;56;21121;-73
2022/05/19 01:54:55;;;;;;;7.10;6.40;;;21.50;63.30;;;;;;2372155;56;21820;-72
2022/05/19 01:57:27;;;;;;;8.02;6.15;;;21.50;63.50;;;;;;2374035;56;21050;-73
2022/05/19 02:00:03;;;;;;;7.43;5.62;;;21.50;63.60;;;;;;2627554;52;21042;-73
2022/05/19 02:02:42;;;;;;;8.20;6.55;;;21.50;63.60;;;;;;2374292;56;21099;-73
2022/05/19 02:05:20;;;;;;;9.10;6.82;;;21.40;63.50;;;;;;2373227;56;21047;-73
2022/05/19 02:07:51;;;;;;;6.82;5.85;;;21.40;63.60;;;;;;2374092;56;21102;-74
2022/05/19 02:10:23;;;;;;;7.90;5.87;;;21.50;63.60;;;;;;2374207;56;21165;-73
2022/05/19 02:12:52;;;;;;;6.43;5.80;;;21.40;63.60;;;;;;2372245;56;21051;-74
2022/05/19 02:15:23;;;;;;;7.57;6.60;;;21.40;63.80;;;;;;2373664;56;21138;-73
2022/05/19 02:17:52;;;;;;;8.13;6.00;;;21.40;63.80;;;;;;2373431;56;21039;-74
2022/05/19 02:20:23;;;;;;;7.90;6.15;;;21.40;63.90;;;;;;2372060;56;21054;-73
2022/05/19 02:22:51;;;;;;;9.05;6.75;;;21.40;63.80;;;;;;2627569;52;21048;-73
2022/05/19 02:25:25;;;;;;;8.35;6.28;;;21.40;63.80;;;;;;2373527;56;21051;-74
2022/05/19 02:27:56;;;;;;;9.25;6.00;;;21.40;64.10;;;;;;2374189;56;21058;-73
2022/05/19 02:30:26;;;;;;;8.13;6.22;;;21.40;63.90;;;;;;2374275;56;21043;-73
2022/05/19 02:32:54;;;;;;;7.65;6.40;;;21.30;64.00;;;;;;2374030;56;21671;-72
2022/05/19 02:35:22;;;;;;;6.80;5.72;;;21.30;63.90;;;;;;2373462;56;21051;-73
2022/05/19 02:37:49;;;;;;;10.07;6.50;;;21.30;63.90;;;;;;2371641;56;21557;-73
2022/05/19 02:40:20;;;;;;;9.85;6.57;;;21.30;63.90;;;;;;2373910;56;21046;-73
2022/05/19 02:42:48;;;;;;;6.75;6.05;;;21.30;64.60;;;;;;2374436;56;21030;-73
2022/05/19 02:45:17;;;;;;;8.88;6.68;;;21.30;63.80;;;;;;2373673;56;21059;-73
2022/05/19 02:47:44;;;;;;;8.93;6.45;;;21.30;63.80;;;;;;2374086;56;21042;-73
2022/05/19 02:50:13;;;;;;;8.60;6.40;;;21.30;64.10;;;;;;2626816;52;21121;-73
2022/05/19 02:52:41;;;;;;;9.82;6.68;;;21.20;64.10;;;;;;2373979;56;21043;-72
2022/05/19 02:55:10;;;;;;;7.15;6.45;;;21.20;64.10;;;;;;2373447;56;21158;-73
2022/05/19 02:57:37;;;;;;;6.87;6.18;;;21.20;64.20;;;;;;2373741;56;21098;-73
2022/05/19 03:00:08;;;;;;;7.78;6.35;;;21.10;64.30;;;;;;2374089;56;21553;-74
2022/05/19 03:02:36;;;;;;;8.27;6.32;;;21.20;64.40;;;;;;2373800;56;21051;-73
2022/05/19 03:05:04;;;;;;;6.75;5.85;;;21.10;64.30;;;;;;2372644;56;21615;-73
2022/05/19 03:07:31;;;;;;;7.30;6.60;;;21.20;64.50;;;;;;2372650;56;21118;-73
2022/05/19 03:09:58;;;;;;;8.23;6.37;;;21.10;64.50;;;;;;2373442;56;21038;-73
2022/05/19 03:12:26;;;;;;;10.10;6.28;;;21.10;64.60;;;;;;2372958;56;21657;-73
2022/05/19 03:14:54;;;;;;;6.87;6.20;;;21.00;64.70;;;;;;2373336;56;21131;-73
2022/05/19 03:17:22;;;;;;;9.68;7.25;;;21.00;64.80;;;;;;2372316;56;21067;-73
2022/05/19 03:19:53;;;;;;;8.77;6.07;;;21.00;64.90;;;;;;2373567;56;21038;-73
2022/05/19 03:22:20;;;;;;;9.88;6.85;;;21.00;64.90;;;;;;2373623;56;21054;-73
2022/05/19 03:24:47;;;;;;;11.90;7.37;;;21.00;64.90;;;;;;2373835;56;21165;-73
2022/05/19 03:27:15;;;;;;;8.40;6.15;;;21.00;64.90;;;;;;2374006;56;21209;-73
2022/05/19 03:29:42;;;;;;;7.05;6.15;;;21.00;64.80;;;;;;2373312;56;21157;-73
2022/05/19 03:32:10;;;;;;;7.78;6.12;;;21.00;65.00;;;;;;2373585;56;21129;-73
2022/05/19 03:34:37;;;;;;;6.97;6.25;;;20.90;65.00;;;;;;2373997;56;21051;-76
2022/05/19 03:37:06;;;;;;;10.25;6.15;;;21.00;65.00;;;;;;2373432;56;21513;-73
2022/05/19 03:39:35;;;;;;;8.57;6.40;;;20.90;65.20;;;;;;2374298;56;21106;-73
2022/05/19 03:42:03;;;;;;;8.55;6.53;;;20.90;65.30;;;;;;2372026;56;21106;-73
2022/05/19 03:44:30;;;;;;;12.70;6.75;;;20.90;65.20;;;;;;2373183;56;21121;-73
2022/05/19 03:46:58;;;;;;;9.85;6.30;;;20.90;65.30;;;;;;2626721;52;21632;-72
2022/05/19 03:49:25;;;;;;;9.60;6.22;;;20.90;65.40;;;;;;2625356;52;21513;-73
2022/05/19 03:51:52;;;;;;;8.10;6.20;;;20.90;65.20;;;;;;2373252;56;21621;-73
2022/05/19 03:54:20;;;;;;;9.75;6.22;;;21.00;65.10;;;;;;2372954;56;21034;-74
2022/05/19 03:56:47;;;;;;;7.85;5.93;;;21.00;65.30;;;;;;2372785;56;21062;-76
2022/05/19 03:59:14;;;;;;;11.25;6.50;;;21.00;65.30;;;;;;2372112;56;21157;-74
2022/05/19 04:01:42;;;;;;;10.73;6.35;;;21.00;65.20;;;;;;2371163;56;21058;-74
2022/05/19 04:06:44;;;;;;;7.25;6.40;;;21.00;65.30;;;;;;2334023;57;27755;-73
2022/05/19 04:09:12;;;;;;;7.57;6.12;;;20.70;67.00;;;;;;2347568;57;21108;-73
2022/05/19 04:11:39;;;;;;;10.60;7.18;;;20.90;66.30;;;;;;2347533;57;21046;-73
2022/05/19 04:14:09;;;;;;;8.35;6.60;;;21.00;65.80;;;;;;2347453;57;21033;-73
2022/05/19 04:16:37;;;;;;;8.32;6.68;;;21.00;65.40;;;;;;2346873;57;21046;-73
2022/05/19 04:19:04;;;;;;;8.52;6.82;;;21.00;65.10;;;;;;2345981;57;21066;-72
2022/05/19 04:21:32;;;;;;;6.95;6.00;;;21.10;65.00;;;;;;2347407;57;21026;-73
2022/05/19 04:26:35;;;;;;;7.65;6.30;;;21.10;65.70;;;;;;2355411;57;22548;-73
2022/05/19 04:29:03;;;;;;;9.40;6.40;;;21.10;64.90;;;;;;2318493;58;21214;-72
2022/05/19 04:31:30;;;;;;;8.18;6.62;;;21.10;65.00;;;;;;2318911;58;21127;-73
2022/05/19 04:33:57;;;;;;;12.00;6.57;;;21.10;65.00;;;;;;2320410;58;21135;-73
2022/05/19 04:36:25;;;;;;;8.55;5.95;;;21.10;65.00;;;;;;2319725;58;21115;-74
2022/05/19 04:38:53;;;;;;;10.70;6.32;;;21.10;65.00;;;;;;2319810;58;21064;-73
2022/05/19 04:41:20;;;;;;;10.48;6.07;;;21.10;65.10;;;;;;2320069;58;21067;-74
2022/05/19 04:43:47;;;;;;;7.10;6.40;;;21.10;65.10;;;;;;2319122;58;21060;-73
2022/05/19 04:46:14;;;;;;;6.95;6.12;;;21.20;65.10;;;;;;2319509;58;21055;-73
2022/05/19 04:48:42;;;;;;;8.20;6.20;;;21.20;65.10;;;;;;2561587;53;21134;-73
2022/05/19 04:51:09;;;;;;;7.25;6.37;;;21.20;65.10;;;;;;2320158;58;21047;-73
2022/05/19 04:53:36;;;;;;;10.30;5.90;;;21.20;65.00;;;;;;2319856;57;21060;-73
2022/05/19 04:56:04;;;;;;;9.07;6.07;;;21.30;65.10;;;;;;2318942;58;21186;-73
2022/05/19 04:58:32;;;;;;;8.15;6.60;;;21.30;65.00;;;;;;2560328;54;21032;-73
2022/05/19 05:00:59;;;;;;;8.00;5.85;;;21.30;64.80;;;;;;2320584;58;21286;-73
2022/05/19 05:03:27;;;;;;;8.90;6.47;;;21.40;64.80;;;;;;2320723;58;21702;-73
2022/05/19 05:05:54;;;;;;;8.30;6.62;;;21.40;65.00;;;;;;2319589;58;21115;-73
2022/05/19 05:08:22;;;;;;;9.10;6.53;;;21.40;64.70;;;;;;2320402;58;21060;-73
2022/05/19 05:10:49;;;;;;;6.62;5.97;;;21.50;64.70;;;;;;2318773;58;21139;-73
2022/05/19 05:13:17;;;;;;;9.10;6.53;;;21.50;64.70;;;;;;2319788;58;21059;-73
2022/05/19 05:15:44;;;;;;;8.70;6.35;;;21.50;64.70;;;;;;2318337;58;21072;-73
2022/05/19 05:18:12;;;;;;;8.98;6.37;;;21.50;64.70;;;;;;2317990;57;21099;-75
2022/05/19 05:20:42;;;;;;;8.30;6.45;;;21.60;64.80;;;;;;2320287;58;21621;-77
2022/05/19 05:23:10;;;;;;;8.07;6.05;;;21.60;64.60;;;;;;2320244;58;21127;-77
2022/05/19 05:25:37;;;;;;;7.15;6.18;;;21.70;64.50;;;;;;2561298;53;21195;-77
2022/05/19 05:28:05;;;;;;;7.32;5.68;;;21.70;64.50;;;;;;2319459;58;21143;-74
2022/05/19 05:30:33;;;;;;;8.25;6.05;;;21.70;64.60;;;;;;2319247;58;21060;-74
2022/05/19 05:35:39;;;;;;;8.50;6.00;;;21.80;64.60;;;;;;2272941;59;22183;-73
2022/05/19 05:38:06;;;;;;;7.35;5.35;;;21.90;64.40;;;;;;2307552;58;21064;-73
2022/05/19 05:40:34;;;;;;;7.53;5.55;;;21.90;64.30;;;;;;2558638;54;21546;-73
2022/05/19 05:43:07;;;;;;;8.82;6.00;;;21.90;64.20;;;;;;2317402;58;21074;-73
2022/05/19 05:45:34;;;;;;;9.15;6.03;;;22.00;64.20;;;;;;2317380;58;21107;-73
2022/05/19 05:48:02;;;;;;;9.20;5.45;;;22.00;64.10;;;;;;2317298;58;21056;-73
2022/05/19 05:50:29;;;;;;;9.40;5.60;;;22.10;64.20;;;;;;2317794;58;21140;-73
2022/05/19 05:52:57;;;;;;;7.28;5.30;;;22.10;64.20;;;;;;2558311;54;21636;-73
2022/05/19 05:55:24;;;;;;;8.43;5.47;;;22.10;64.30;;;;;;2317223;58;21583;-74
2022/05/19 05:57:52;;;;;;;6.50;5.90;;;22.10;64.30;;;;;;2316280;58;21163;-74
2022/05/19 06:00:21;;;;;;;6.55;5.45;;;22.20;64.30;;;;;;2317662;58;21563;-74
2022/05/19 06:02:49;;;;;;;7.22;6.10;;;22.20;64.20;;;;;;2317556;58;21096;-74
2022/05/19 06:05:17;;;;;;;9.02;7.15;;;22.20;64.30;;;;;;2316853;58;21100;-74
2022/05/19 06:07:45;;;;;;;9.70;6.68;;;22.30;64.30;;;;;;2317637;58;21155;-74
2022/05/19 06:10:14;;;;;;;9.52;6.65;;;22.30;64.10;;;;;;2317553;58;21067;-74
2022/05/19 06:12:42;;;;;;;22.13;8.45;;;22.30;63.80;;;;;;2317353;58;21167;-74
2022/05/19 06:15:12;;;;;;;10.02;6.78;;;22.40;64.10;;;;;;2317153;58;21131;-74
2022/05/19 06:17:40;;;;;;;7.53;5.68;;;22.40;64.30;;;;;;2316914;58;21069;-74
2022/05/19 06:20:12;;;;;;;15.40;7.85;;;22.40;64.10;;;;;;2316963;58;21076;-74
2022/05/19 06:22:39;;;;;;;9.38;6.43;;;22.40;64.00;;;;;;2558087;54;21056;-74
2022/05/19 06:25:09;;;;;;;15.38;7.03;;;22.50;64.00;;;;;;2317227;58;21068;-74
2022/05/19 06:27:37;;;;;;;13.25;7.15;;;22.50;63.80;;;;;;2316937;58;21136;-74
2022/05/19 06:30:07;;;;;;;9.27;6.30;;;22.60;63.80;;;;;;2317471;58;21059;-74
2022/05/19 06:32:34;;;;;;;9.05;6.10;;;22.60;63.90;;;;;;2317759;58;21215;-74
2022/05/19 06:35:02;;;;;;;7.03;5.53;;;22.60;64.40;;;;;;2306691;58;21053;-74
2022/05/19 06:37:32;;;;;;;8.05;4.85;;;22.60;62.70;;;;;;2298064;58;21065;-74
2022/05/19 06:39:59;;;;;;;9.20;5.93;;;22.70;62.90;;;;;;2299833;58;21065;-74
2022/05/19 06:42:26;;;;;;;9.88;6.35;;;22.70;62.70;;;;;;2299691;58;21120;-73
2022/05/19 06:44:54;;;;;;;11.35;6.70;;;22.70;63.10;;;;;;2536752;54;21061;-74
2022/05/19 06:47:22;;;;;;;12.07;5.95;;;22.80;62.50;;;;;;2298991;58;21619;-74
2022/05/19 06:49:51;;;;;;;10.60;5.62;;;22.80;62.60;;;;;;2298943;58;21068;-74
2022/05/19 06:54:55;;;;;;;6.85;5.30;;;22.80;62.50;;;;;;2301842;58;28079;-74
2022/05/19 06:57:24;;;;;;;6.70;5.10;;;22.70;63.20;;;;;;2283650;58;21062;-74
2022/05/19 06:59:52;;;;;;;6.32;4.93;;;22.80;63.10;;;;;;2265787;59;21603;-74
2022/05/19 07:02:22;;;;;;;7.15;5.40;;;22.90;62.80;;;;;;2265597;59;21157;-74
2022/05/19 07:04:49;;;;;;;11.95;4.97;;;22.90;62.40;;;;;;2265294;59;21192;-74
2022/05/19 07:07:17;;;;;;;5.70;4.55;;;22.90;61.50;;;;;;2494790;55;21121;-75
2022/05/19 07:09:44;;;;;;;8.25;4.95;;;23.00;61.50;;;;;;2265371;59;21137;-73
2022/05/19 07:12:12;;;;;;;5.43;4.53;;;23.00;61.50;;;;;;2493790;55;21042;-75
2022/05/19 07:14:41;;;;;;;6.87;5.15;;;23.00;60.90;;;;;;2265002;59;21054;-74
2022/05/19 07:17:08;;;;;;;4.57;4.03;;;23.10;61.10;;;;;;2265193;59;21089;-74
2022/05/19 07:22:22;;;;;;;6.20;4.50;;;23.10;59.80;;;;;;2264709;59;21082;-74
2022/05/19 07:24:50;;;;;;;8.10;4.45;;;23.20;59.90;;;;;;2264514;59;21607;-74
2022/05/19 07:27:18;;;;;;;9.40;4.70;;;23.20;60.30;;;;;;2265649;59;21552;-74
2022/05/19 07:29:45;;;;;;;7.18;4.62;;;23.30;60.50;;;;;;2266040;59;21066;-74
2022/05/19 07:32:13;;;;;;;6.15;4.62;;;23.30;59.80;;;;;;2264969;59;21113;-74
2022/05/19 07:34:41;;;;;;;6.80;4.55;;;23.30;59.90;;;;;;2265926;59;21073;-74
2022/05/19 07:37:08;;;;;;;9.73;4.20;;;23.40;60.00;;;;;;2263839;59;21065;-74
2022/05/19 07:39:36;;;;;;;4.90;4.10;;;23.50;59.70;;;;;;2494674;54;21046;-74
2022/05/19 07:42:04;;;;;;;4.97;4.30;;;23.50;59.20;;;;;;2266175;59;21125;-74
2022/05/19 07:44:31;;;;;;;5.50;4.45;;;23.50;57.80;;;;;;2265845;59;21554;-74
2022/05/19 07:46:58;;;;;;;4.93;3.97;;;23.60;58.10;;;;;;2265504;59;21097;-74
2022/05/19 07:49:26;;;;;;;5.07;3.97;;;23.60;59.00;;;;;;2495393;55;21141;-74
2022/05/19 07:51:53;;;;;;;5.10;4.60;;;23.60;57.90;;;;;;2264453;59;21069;-74
2022/05/19 07:54:22;;;;;;;7.50;4.75;;;23.60;58.70;;;;;;2254760;59;21136;-74
2022/05/19 07:56:50;;;;;;;4.30;3.90;;;23.70;58.90;;;;;;2247722;60;21061;-74
2022/05/19 07:59:19;;;;;;;8.10;4.57;;;23.70;58.40;;;;;;2474228;56;21069;-74
2022/05/19 08:01:47;;;;;;;7.93;4.35;;;23.80;58.70;;;;;;2248678;60;21125;-74
2022/05/19 08:04:15;;;;;;;4.87;4.15;;;23.80;59.20;;;;;;2244127;60;21061;-75
2022/05/19 08:06:43;;;;;;;5.93;4.20;;;23.90;59.20;;;;;;2245369;60;21552;-75
2022/05/19 08:11:55;;;;;;;4.82;4.30;;;24.00;57.50;;;;;;2246666;60;21118;-74
2022/05/19 08:17:10;;;;;;;6.37;5.00;;;24.10;57.80;;;;;;2247224;60;21085;-74
2022/05/19 08:19:38;;;;;;;7.10;4.00;;;24.20;57.20;;;;;;2246680;60;21212;-75
2022/05/19 08:22:08;;;;;;;6.55;4.10;;;24.20;57.60;;;;;;2246981;60;21074;-74
2022/05/19 08:24:36;;;;;;;7.28;4.20;;;24.30;58.10;;;;;;2246684;60;21373;-74
2022/05/19 08:27:05;;;;;;;7.50;3.87;;;24.50;58.00;;;;;;2247372;60;21057;-74
2022/05/19 08:29:34;;;;;;;4.37;3.53;;;24.50;57.30;;;;;;2246365;60;21145;-74
2022/05/19 08:32:01;;;;;;;4.57;3.50;;;24.70;57.80;;;;;;2247015;60;21128;-74
2022/05/19 08:34:29;;;;;;;5.00;4.32;;;24.70;57.40;;;;;;2247202;60;21691;-74
2022/05/19 08:36:56;;;;;;;7.07;4.40;;;24.80;56.70;;;;;;2247084;60;21189;-74
2022/05/19 08:39:25;;;;;;;4.85;4.22;;;24.90;56.60;;;;;;2247731;60;21126;-74
2022/05/19 08:41:56;;;;;;;7.15;4.03;;;24.90;56.50;;;;;;2247821;60;21129;-74
2022/05/19 08:44:26;;;;;;;7.72;4.18;;;24.90;56.80;;;;;;2247167;60;21094;-74
2022/05/19 08:46:57;;;;;;;7.10;3.75;;;25.00;56.00;;;;;;2247157;60;21073;-74
2022/05/19 08:49:38;;;;;;;5.00;4.12;;;25.00;55.80;;;;;;2247256;60;21130;-74
2022/05/19 08:52:08;;;;;;;7.12;3.78;;;25.00;56.00;;;;;;2247915;60;21185;-74
2022/05/19 08:54:37;;;;;;;8.02;3.95;;;25.10;54.50;;;;;;2247449;60;21093;-74
2022/05/19 08:57:14;;;;;;;4.62;3.83;;;25.10;54.40;;;;;;2247349;59;21544;-74
2022/05/19 08:59:52;;;;;;;4.85;3.53;;;25.20;54.90;;;;;;2247807;60;21077;-74
2022/05/19 09:02:24;;;;;;;4.22;3.45;;;25.30;55.10;;;;;;2247292;60;21117;-74
2022/05/19 09:05:12;;;;;;;4.62;3.75;;;25.30;54.30;;;;;;2246925;60;21062;-74
2022/05/19 09:07:59;;;;;;;4.75;3.60;;;25.40;55.00;;;;;;2247658;60;21134;-74
2022/05/19 09:10:44;;;;;;;3.85;3.10;;;25.50;54.40;;;;;;2247953;60;21138;-75
2022/05/19 09:13:24;;;;;;;6.87;3.80;;;25.50;53.30;;;;;;2247597;60;21082;-75
2022/05/19 09:15:52;;;;;;;6.20;3.22;;;25.60;52.90;;;;;;2247337;60;21102;-75
2022/05/19 09:18:26;;;;;;;3.65;3.25;;;25.70;53.50;;;;;;2247097;60;21129;-75
2022/05/19 09:20:56;;;;;;;3.67;3.22;;;25.70;52.90;;;;;;2247539;60;21058;-75
2022/05/19 09:23:24;;;;;;;4.47;3.05;;;25.80;51.90;;;;;;2248014;60;21050;-73
2022/05/19 09:25:58;;;;;;;3.92;3.05;;;25.90;51.80;;;;;;2246969;60;21110;-74
2022/05/19 09:28:26;;;;;;;4.45;3.22;;;25.90;52.00;;;;;;2247711;60;21129;-74
2022/05/19 09:30:56;;;;;;;3.62;2.60;;;25.90;51.60;;;;;;2247379;60;21050;-74
2022/05/19 09:33:33;;;;;;;4.90;3.10;;;26.00;52.10;;;;;;2246827;60;21137;-75
2022/05/19 09:36:01;;;;;;;3.45;3.15;;;26.00;51.10;;;;;;2245622;60;21062;-76
2022/05/19 09:38:33;;;;;;;2.90;2.60;;;26.10;51.40;;;;;;2468999;55;21663;-75
2022/05/19 09:41:03;;;;;;;6.12;2.55;;;26.10;51.10;;;;;;2350069;54;21042;-78
2022/05/19 09:43:33;;;;;;;4.05;2.97;;;26.20;51.10;;;;;;2305163;58;21611;-78
2022/05/19 09:46:09;;;;;;;3.75;2.72;;;26.20;50.50;;;;;;2304779;54;21042;-78
2022/05/19 09:48:41;;;;;;;5.62;2.75;;;26.30;49.70;;;;;;2491865;53;21065;-77
2022/05/19 09:51:11;;;;;;;4.95;2.50;;;26.30;49.60;;;;;;2305720;58;21113;-77
2022/05/19 09:53:41;;;;;;;3.45;2.80;;;26.40;50.10;;;;;;2305551;58;21156;-77
2022/05/19 09:56:12;;;;;;;5.70;2.67;;;26.40;49.70;;;;;;2304484;58;21901;-78
2022/05/19 09:58:44;;;;;;;3.15;2.72;;;26.50;49.80;;;;;;2305700;58;21212;-78
2022/05/19 10:01:20;;;;;;;3.05;2.40;;;26.50;49.30;;;;;;2306643;58;21105;-77
2022/05/19 10:03:54;;;;;;;4.00;2.58;;;26.60;49.20;;;;;;2307512;58;21148;-78
2022/05/19 10:06:25;;;;;;;6.37;2.80;;;26.70;48.70;;;;;;2307430;58;21137;-78
2022/05/19 10:09:04;;;;;;;5.25;2.60;;;26.70;49.00;;;;;;2307915;58;21100;-78
2022/05/19 10:11:31;;;;;;;4.05;2.42;;;26.80;48.90;;;;;;2306991;58;21132;-78
2022/05/19 10:14:07;;;;;;;3.00;2.70;;;26.80;48.50;;;;;;2538205;54;21137;-76
2022/05/19 10:16:42;;;;;;;5.20;2.20;;;26.90;48.80;;;;;;2307638;58;21144;-77
2022/05/19 10:19:22;;;;;;;3.28;2.33;;;27.00;48.20;;;;;;2307263;58;21057;-77
2022/05/19 10:25:08;;;;;;;8.48;2.45;;;27.10;48.80;;;;;;2354475;57;22513;-76
2022/05/19 10:33:39;;;;;;;4.25;2.35;;;27.20;47.80;;;;;;2521611;52;21536;-77
2022/05/19 10:36:17;;;;;;;5.12;2.60;;;27.30;47.10;;;;;;2371014;56;21047;-76
2022/05/19 10:38:53;;;;;;;2.45;2.25;;;27.40;47.40;;;;;;2373077;56;21058;-77
2022/05/19 10:41:37;;;;;;;4.45;2.17;;;27.60;47.40;;;;;;2374111;56;21130;-78
2022/05/19 10:44:29;;;;;;;3.05;2.53;;;27.70;47.20;;;;;;2374472;56;21116;-77
2022/05/19 10:47:05;;;;;;;5.72;2.37;;;27.70;46.80;;;;;;2373545;56;21039;-78
2022/05/19 10:49:53;;;;;;;3.58;2.80;;;27.90;47.00;;;;;;2393446;52;21121;-77
2022/05/19 10:52:39;;;;;;;4.22;2.65;;;28.00;46.10;;;;;;2374557;56;21043;-76
2022/05/19 10:55:17;;;;;;;3.87;2.58;;;28.10;45.00;;;;;;2373878;56;21173;-76
2022/05/19 10:58:05;;;;;;;4.18;2.35;;;28.20;44.30;;;;;;2373607;56;21039;-77
2022/05/19 11:00:50;;;;;;;3.87;2.47;;;28.20;44.50;;;;;;2375111;56;21054;-77
2022/05/19 11:03:39;;;;;;;4.03;2.45;;;28.30;44.10;;;;;;2458690;52;21577;-78
2022/05/19 11:06:29;;;;;;;6.45;2.33;;;28.30;44.20;;;;;;2374663;56;21526;-77
2022/05/19 11:09:07;;;;;;;2.55;2.30;;;28.40;44.30;;;;;;2374493;56;21031;-76
2022/05/19 11:11:48;;;;;;;4.28;2.70;;;28.50;44.30;;;;;;2375227;56;21505;-76
2022/05/19 11:14:25;;;;;;;8.00;2.45;;;28.60;44.20;;;;;;2375301;56;21047;-76
2022/05/19 11:17:02;;;;;;;6.78;2.60;;;28.70;43.80;;;;;;2375141;56;21035;-76
2022/05/19 11:19:33;;;;;;;8.32;2.72;;;28.80;43.70;;;;;;2375219;56;21046;-76
2022/05/19 11:22:04;;;;;;;10.35;2.72;;;28.90;43.30;;;;;;2375595;56;21138;-76
2022/05/19 11:26:23;;;;;;;5.78;2.78;;;29.00;43.50;;;;;;2425827;52;21051;-77
2022/05/19 11:28:58;;;;;;;6.28;2.50;;;29.20;43.20;;;;;;2393732;52;21107;-76
2022/05/19 11:31:36;;;;;;;2.60;2.12;;;29.40;43.00;;;;;;2375273;56;21079;-76
2022/05/19 11:34:14;;;;;;;3.05;2.50;;;29.50;42.10;;;;;;2410481;52;21039;-76
2022/05/19 11:36:49;;;;;;;4.07;2.12;;;29.60;41.50;;;;;;2374221;56;21038;-77
2022/05/19 11:39:23;;;;;;;3.33;2.72;;;29.80;42.50;;;;;;2374315;56;21023;-76
2022/05/19 11:41:53;;;;;;;3.17;2.45;;;29.90;41.50;;;;;;2374504;56;21091;-77
2022/05/19 11:44:25;;;;;;;3.45;2.30;;;30.00;41.50;;;;;;2373805;56;21043;-76
2022/05/19 11:46:57;;;;;;;3.22;2.53;;;30.10;40.40;;;;;;2435078;52;21039;-76
2022/05/19 11:55:17;;;;;;;4.78;2.70;;;30.50;40.40;;;;;;2373783;52;21019;-77
2022/05/19 11:57:54;;;;;;;3.50;2.65;;;30.60;41.00;;;;;;2397777;52;21565;-77
2022/05/19 12:00:26;;;;;;;3.17;2.62;;;30.70;40.40;;;;;;2373617;53;21082;-77
2022/05/19 12:03:02;;;;;;;3.62;2.60;;;30.70;39.20;;;;;;2373085;56;21046;-76
2022/05/19 12:05:35;;;;;;;3.62;2.40;;;30.80;39.70;;;;;;2373677;56;21086;-77
2022/05/19 12:08:15;;;;;;;4.60;2.77;;;30.80;38.90;;;;;;2374268;56;21086;-76
2022/05/19 12:10:54;;;;;;;5.20;2.60;;;30.90;39.70;;;;;;2373669;56;21011;-77
2022/05/19 12:13:32;;;;;;;5.32;2.65;;;30.90;39.10;;;;;;2374119;56;21050;-76
2022/05/19 12:16:11;;;;;;;3.00;2.50;;;31.00;38.70;;;;;;2373426;56;21043;-77
2022/05/19 12:18:46;;;;;;;4.70;2.60;;;31.10;38.90;;;;;;2373656;56;21054;-75
2022/05/19 12:21:41;;;;;;;8.27;2.62;;;31.20;38.80;;;;;;2396924;52;21122;-75
2022/05/19 12:24:11;;;;;;;2.97;2.42;;;31.30;38.10;;;;;;2399572;52;21114;-75
2022/05/19 12:26:50;;;;;;;4.28;2.70;;;31.40;38.20;;;;;;2373813;56;21055;-76
2022/05/19 12:29:32;;;;;;;3.92;2.22;;;31.40;38.00;;;;;;2426856;52;21051;-76
2022/05/19 12:32:09;;;;;;;3.62;2.62;;;31.40;38.70;;;;;;2373517;56;21099;-77
2022/05/19 12:34:45;;;;;;;5.70;2.80;;;31.50;38.90;;;;;;2373751;56;21062;-77
2022/05/19 12:37:41;;;;;;;2.62;2.35;;;31.50;37.70;;;;;;2373557;56;21039;-76
2022/05/19 12:40:53;;;;;;;3.70;2.50;;;31.50;38.80;;;;;;2373126;56;21047;-76
2022/05/19 12:46:06;;;;;;;3.17;2.87;;;31.50;39.00;;;;;;2376955;53;22659;-75
2022/05/19 12:48:50;;;;;;;3.83;2.47;;;31.60;37.90;;;;;;2369257;56;21152;-78
2022/05/19 12:51:25;;;;;;;4.20;2.25;;;31.80;39.40;;;;;;2375031;56;21106;-77
2022/05/19 12:54:07;;;;;;;3.33;3.00;;;31.80;37.10;;;;;;2375218;56;21110;-75
2022/05/19 12:56:55;;;;;;;3.92;2.92;;;31.90;37.50;;;;;;2437565;52;21071;-77
2022/05/19 12:59:48;;;;;;;5.40;2.80;;;31.90;36.50;;;;;;2374608;56;21114;-76
2022/05/19 13:02:25;;;;;;;3.72;2.95;;;32.00;37.80;;;;;;2374974;56;21114;-76
2022/05/19 13:04:57;;;;;;;6.20;2.65;;;32.10;38.10;;;;;;2375017;56;21043;-75
2022/05/19 13:07:28;;;;;;;3.58;2.50;;;32.10;37.90;;;;;;2374614;56;21202;-76
2022/05/19 13:10:03;;;;;;;3.00;2.65;;;32.10;38.20;;;;;;2375568;56;21110;-76
2022/05/19 13:12:44;;;;;;;3.58;2.50;;;32.20;37.60;;;;;;2436495;52;21030;-76
2022/05/19 13:15:11;;;;;;;4.57;2.60;;;32.10;38.00;;;;;;2374362;56;21113;-76
2022/05/19 13:17:42;;;;;;;3.72;2.65;;;32.10;36.90;;;;;;2374966;56;21569;-76
2022/05/19 13:20:17;;;;;;;4.97;2.20;;;32.10;36.70;;;;;;2375236;56;21133;-77
2022/05/19 13:22:53;;;;;;;5.35;2.53;;;32.10;36.20;;;;;;2374102;56;21031;-76
2022/05/19 13:25:20;;;;;;;4.95;2.25;;;32.10;36.70;;;;;;2374333;56;21035;-76
2022/05/19 13:31:02;;;;;;;6.55;2.03;;;32.10;36.80;;;;;;2315650;56;21050;-77
2022/05/19 13:33:37;;;;;;;4.40;2.40;;;32.00;36.90;;;;;;2405017;52;21142;-77
2022/05/19 13:36:07;;;;;;;2.62;2.00;;;32.10;36.90;;;;;;2374553;56;21573;-78
2022/05/19 13:38:35;;;;;;;3.55;2.08;;;32.10;36.80;;;;;;2372646;56;21039;-77
2022/05/19 13:41:05;;;;;;;6.43;2.92;;;32.10;37.80;;;;;;2416571;52;21161;-78
2022/05/19 13:43:35;;;;;;;2.92;2.17;;;32.10;34.80;;;;;;2373179;56;21106;-78
2022/05/19 13:46:05;;;;;;;7.53;2.58;;;32.20;34.90;;;;;;2373926;56;21050;-78
2022/05/19 13:48:41;;;;;;;3.35;2.37;;;32.20;35.20;;;;;;2374271;56;21062;-78